HEBL 061100Z 02006KT CAVOK 38/11 Q1011 NOSIG
From batch tds/metars/production/2022/10/6/h11_m26_metars.cache.csv.gz
Observed at (about 1 hour ago)
Identifier HEBL
HEBL 061000Z 01008KT CAVOK 38/11 Q1011 NOSIG
From batch tds/metars/production/2022/10/6/h10_m24_metars.cache.csv.gz
Observed at (about 2 hours ago)
Identifier HEBL
HEBL 060900Z 03005KT CAVOK 37/12 Q1012 NOSIG
From batch tds/metars/production/2022/10/6/h09_m29_metars.cache.csv.gz
Observed at (about 3 hours ago)
Identifier HEBL
HEBL 060600Z 04006KT CAVOK 31/14 Q1012 NOSIG
From batch tds/metars/production/2022/10/6/h06_m20_metars.cache.csv.gz
Observed at (about 6 hours ago)
Identifier HEBL
HEBL 060200Z 34010KT CAVOK 28/12 Q1012 NOSIG
From batch tds/metars/production/2022/10/6/h02_m26_metars.cache.csv.gz
Observed at (about 10 hours ago)
Identifier HEBL
HEBL 060100Z 33012KT CAVOK 29/12 Q1011 NOSIG
From batch tds/metars/production/2022/10/6/h01_m51_metars.cache.csv.gz
Observed at (about 11 hours ago)
Identifier HEBL
HEBL 052300Z 34007KT CAVOK 29/11 Q1011 NOSIG
From batch tds/metars/production/2022/10/5/h23_m20_metars.cache.csv.gz
Observed at (about 13 hours ago)
Identifier HEBL
HEBL 052200Z 32008KT CAVOK 30/12 Q1011 NOSIG
From batch tds/metars/production/2022/10/5/h22_m23_metars.cache.csv.gz
Observed at (about 14 hours ago)
Identifier HEBL
HEBL 052000Z 34006KT CAVOK 33/11 Q1011 NOSIG
From batch tds/metars/production/2022/10/5/h20_m27_metars.cache.csv.gz
Observed at (about 16 hours ago)
Identifier HEBL
HEBL 051900Z 33008KT CAVOK 34/10 Q1011 NOSIG
From batch tds/metars/production/2022/10/5/h19_m23_metars.cache.csv.gz
Observed at (about 17 hours ago)
Identifier HEBL
HEBL 051700Z 32008KT CAVOK 35/11 Q1011 NOSIG
From batch tds/metars/production/2022/10/5/h17_m55_metars.cache.csv.gz
Observed at (about 19 hours ago)
Identifier HEBL
HEBL 051600Z 32008KT CAVOK 36/11 Q1009 NOSIG
From batch tds/metars/production/2022/10/5/h16_m21_metars.cache.csv.gz
Observed at (about 20 hours ago)
Identifier HEBL
HEBL 051500Z 35010KT CAVOK 37/11 Q1010 NOSIG
From batch tds/metars/production/2022/10/5/h15_m53_metars.cache.csv.gz
Observed at (about 21 hours ago)
Identifier HEBL
HEBL 051400Z 36008KT CAVOK 39/10 Q1011 NOSIG
From batch tds/metars/production/2022/10/5/h14_m27_metars.cache.csv.gz
Observed at (about 22 hours ago)
Identifier HEBL
HEBL 051300Z 36008KT CAVOK 38/10 Q1011 NOSIG
From batch tds/metars/production/2022/10/5/h13_m28_metars.cache.csv.gz
Observed at (about 23 hours ago)
Identifier HEBL
HEBL 051200Z 01006KT CAVOK 3/09 Q1011 NOSIG
From batch tds/metars/production/2022/10/5/h12_m29_metars.cache.csv.gz
Observed at (about 24 hours ago)
Identifier HEBL
HEBL 051100Z 34012KT CAVOK 38/11 Q1012 NOSIG
From batch tds/metars/production/2022/10/5/h11_m28_metars.cache.csv.gz
Observed at (1 day ago)
Identifier HEBL
HEBL 051000Z 32008KT CAVOK 37/10 Q1012 NOSIG
From batch tds/metars/production/2022/10/5/h10_m28_metars.cache.csv.gz
Observed at (1 day ago)
Identifier HEBL
HEBL 050900Z 35010KT CAVOK 35/10 Q1013 NOSIG
From batch tds/metars/production/2022/10/5/h09_m50_metars.cache.csv.gz
Observed at (1 day ago)
Identifier HEBL
HEBL 050800Z 01008KT CAVOK 31/11 Q1013 NOSIG
From batch tds/metars/production/2022/10/5/h08_m25_metars.cache.csv.gz
Observed at (1 day ago)
Identifier HEBL
HEBL 050700Z 04005KT CAVOK 30/12 Q1012 NOSIG
From batch tds/metars/production/2022/10/5/h07_m29_metars.cache.csv.gz
Observed at (1 day ago)
Identifier HEBL
HEBL 050600Z 02006KT CAVOK 29/11 Q1013 NOSIG
From batch tds/metars/production/2022/10/5/h06_m55_metars.cache.csv.gz
Observed at (1 day ago)
Identifier HEBL
HEBL 050200Z 35012KT CAVOK 27/11 Q1010 NOSIG
From batch tds/metars/production/2022/10/5/h02_m20_metars.cache.csv.gz
Observed at (1 day ago)
Identifier HEBL
HEBL 050100Z 34010KT CAVOK 27/13 Q1010 NOSIG
From batch tds/metars/production/2022/10/5/h01_m28_metars.cache.csv.gz
Observed at (1 day ago)
Identifier HEBL
HEBL 050000Z 33010KT CAVOK 28/12 Q1010 NOSIG
From batch tds/metars/production/2022/10/5/h00_m59_metars.cache.csv.gz
Observed at (1 day ago)
Identifier HEBL
HEBL 042200Z 34012KT CAVOK 30/12 Q1010 NOSIG
From batch tds/metars/production/2022/10/4/h22_m21_metars.cache.csv.gz
Observed at (1 day ago)
Identifier HEBL
HEBL 042100Z 36015KT CAVOK 31/13 Q1010 NOSIG
From batch tds/metars/production/2022/10/4/h21_m24_metars.cache.csv.gz
Observed at (1 day ago)
Identifier HEBL
HEBL 042000Z 36012KT CAVOK 31/11 Q1010 NOSIG
From batch tds/metars/production/2022/10/4/h20_m26_metars.cache.csv.gz
Observed at (1 day ago)
Identifier HEBL
HEBL 041900Z 34014KT CAVOK 32/11 Q1010 NOSIG
From batch tds/metars/production/2022/10/4/h19_m27_metars.cache.csv.gz
Observed at (1 day ago)
Identifier HEBL
HEBL 041800Z 32013KT CAVOK 34/12 Q1010 NOSIG
From batch tds/metars/production/2022/10/4/h18_m26_metars.cache.csv.gz
Observed at (1 day ago)
Identifier HEBL
HEBL 041700Z 36010KT CAVOK 36/10 Q1008 NOSIG
From batch tds/metars/production/2022/10/4/h17_m26_metars.cache.csv.gz
Observed at (2 days ago)
Identifier HEBL
HEBL 041600Z 34005KT CAVOK 37/06 Q1008 NOSIG
From batch tds/metars/production/2022/10/4/h16_m29_metars.cache.csv.gz
Observed at (2 days ago)
Identifier HEBL
HEBL 041500Z 32009KT CAVOK 39/09 Q1008 NOSIG
From batch tds/metars/production/2022/10/4/h15_m51_metars.cache.csv.gz
Observed at (2 days ago)
Identifier HEBL
HEBL 041400Z 33006KT CAVOK 40/10 Q1008 NOSIG
From batch tds/metars/production/2022/10/4/h14_m22_metars.cache.csv.gz
Observed at (2 days ago)
Identifier HEBL
HEBL 041300Z 34008KT CAVOK 40/11 Q1008 NOSIG
From batch tds/metars/production/2022/10/4/h13_m56_metars.cache.csv.gz
Observed at (2 days ago)
Identifier HEBL
HEBL 041200Z 36010KT CAVOK 39/10 Q1008 NOSIG
From batch tds/metars/production/2022/10/4/h12_m52_metars.cache.csv.gz
Observed at (2 days ago)
Identifier HEBL
HEBL 041100Z 31008KT CAVOK 38/11 Q1009 NOSIG
From batch tds/metars/production/2022/10/4/h11_m50_metars.cache.csv.gz
Observed at (2 days ago)
Identifier HEBL
HEBL 041000Z 31008KT CAVOK 37/11 Q1010 NOSIG
From batch tds/metars/production/2022/10/4/h10_m59_metars.cache.csv.gz
Observed at (2 days ago)
Identifier HEBL
HEBL 040900Z 33007KT CAVOK 35/12 Q1010 NOSIG
From batch tds/metars/production/2022/10/4/h09_m59_metars.cache.csv.gz
Observed at (2 days ago)
Identifier HEBL
HEBL 040800Z 01006KT CAVOK 33/12 Q1010 NOSIG
From batch tds/metars/production/2022/10/4/h08_m59_metars.cache.csv.gz
Observed at (2 days ago)
Identifier HEBL
HEBL 040600Z 04005KT CAVOK 29/14 Q1010 NOSIG
From batch tds/metars/production/2022/10/4/h06_m50_metars.cache.csv.gz
Observed at (2 days ago)
Identifier HEBL
HEBL 032300Z 01006KT CAVOK 28/12 Q1007 NOSIG
From batch tds/metars/production/2022/10/3/h23_m22_metars.cache.csv.gz
Observed at (3 days ago)
Identifier HEBL
HEBL 032200Z 01006KT CAVOK 29/13 Q1007 NOSIG
From batch tds/metars/production/2022/10/3/h22_m54_metars.cache.csv.gz
Observed at (3 days ago)
Identifier HEBL
HEBL 032100Z 00000KT CAVOK 30/14 Q1007 NOSIG
From batch tds/metars/production/2022/10/3/h21_m57_metars.cache.csv.gz
Observed at (3 days ago)
Identifier HEBL
HEBL 032000Z 01005KT CAVOK 31/12 Q1006 NOSIG
From batch tds/metars/production/2022/10/3/h20_m50_metars.cache.csv.gz
Observed at (3 days ago)
Identifier HEBL
HEBL 031900Z 01006KT CAVOK 32/11 Q1006 NOSIG
From batch tds/metars/production/2022/10/3/h19_m27_metars.cache.csv.gz
Observed at (3 days ago)
Identifier HEBL
HEBL 031800Z 04004KT CAVOK 34/13 Q1006 NOSIG
From batch tds/metars/production/2022/10/3/h18_m51_metars.cache.csv.gz
Observed at (3 days ago)
Identifier HEBL
HEBL 031700Z 01004KT CAVOK 37/10 Q1005 NOSIG
From batch tds/metars/production/2022/10/3/h17_m59_metars.cache.csv.gz
Observed at (3 days ago)
Identifier HEBL
HEBL 031500Z 00000KT CAVOK 39/12 Q1005 NOSIG
From batch tds/metars/production/2022/10/3/h15_m51_metars.cache.csv.gz
Observed at (3 days ago)
Identifier HEBL
HEBL 031400Z 35008KT CAVOK 40/11 Q1006 NOSIG
From batch tds/metars/production/2022/10/3/h14_m28_metars.cache.csv.gz
Observed at (3 days ago)
Identifier HEBL
talk